sensor_id;sensor_type;location;lat;lon;timestamp;P1;durP1;ratioP1;P2;durP2;ratioP2
65533;SDS011;53640;55.838;37.184;2023-02-03T00:01:58;29.08;;;14.88;;
65533;SDS011;53640;55.838;37.184;2023-02-03T00:04:25;27.83;;;14.05;;
65533;SDS011;53640;55.838;37.184;2023-02-03T00:06:52;33.65;;;16.48;;
65533;SDS011;53640;55.838;37.184;2023-02-03T00:09:19;28.85;;;15.85;;
65533;SDS011;53640;55.838;37.184;2023-02-03T00:11:45;29.65;;;15.50;;
65533;SDS011;53640;55.838;37.184;2023-02-03T00:14:14;30.10;;;14.35;;
65533;SDS011;53640;55.838;37.184;2023-02-03T00:16:42;25.77;;;13.10;;
65533;SDS011;53640;55.838;37.184;2023-02-03T00:19:11;29.35;;;15.02;;
65533;SDS011;53640;55.838;37.184;2023-02-03T00:21:38;34.50;;;17.10;;
65533;SDS011;53640;55.838;37.184;2023-02-03T00:24:05;34.83;;;16.20;;
65533;SDS011;53640;55.838;37.184;2023-02-03T00:26:32;30.45;;;15.48;;
65533;SDS011;53640;55.838;37.184;2023-02-03T00:28:59;33.17;;;16.48;;
65533;SDS011;53640;55.838;37.184;2023-02-03T00:31:25;30.08;;;15.23;;
65533;SDS011;53640;55.838;37.184;2023-02-03T00:33:54;29.48;;;15.32;;
65533;SDS011;53640;55.838;37.184;2023-02-03T00:36:22;26.48;;;13.88;;
65533;SDS011;53640;55.838;37.184;2023-02-03T00:38:50;32.75;;;14.30;;
65533;SDS011;53640;55.838;37.184;2023-02-03T00:41:16;28.58;;;14.98;;
65533;SDS011;53640;55.838;37.184;2023-02-03T00:43:45;27.60;;;14.93;;
65533;SDS011;53640;55.838;37.184;2023-02-03T00:46:13;23.05;;;12.23;;
65533;SDS011;53640;55.838;37.184;2023-02-03T00:48:40;26.20;;;13.00;;
65533;SDS011;53640;55.838;37.184;2023-02-03T00:51:07;28.25;;;13.80;;
65533;SDS011;53640;55.838;37.184;2023-02-03T00:53:33;27.15;;;13.80;;
65533;SDS011;53640;55.838;37.184;2023-02-03T00:56:00;31.95;;;15.68;;
65533;SDS011;53640;55.838;37.184;2023-02-03T00:58:27;32.67;;;15.00;;
65533;SDS011;53640;55.838;37.184;2023-02-03T01:00:54;27.67;;;13.77;;
65533;SDS011;53640;55.838;37.184;2023-02-03T01:03:21;28.60;;;14.02;;
65533;SDS011;53640;55.838;37.184;2023-02-03T01:05:48;30.15;;;15.57;;
65533;SDS011;53640;55.838;37.184;2023-02-03T01:08:15;30.20;;;15.48;;
65533;SDS011;53640;55.838;37.184;2023-02-03T01:10:42;27.60;;;14.63;;
65533;SDS011;53640;55.838;37.184;2023-02-03T01:13:08;25.92;;;13.20;;
65533;SDS011;53640;55.838;37.184;2023-02-03T01:15:36;30.40;;;15.60;;
65533;SDS011;53640;55.838;37.184;2023-02-03T01:18:02;28.33;;;15.45;;
65533;SDS011;53640;55.838;37.184;2023-02-03T01:20:29;30.10;;;15.15;;
65533;SDS011;53640;55.838;37.184;2023-02-03T01:22:57;30.45;;;16.20;;
65533;SDS011;53640;55.838;37.184;2023-02-03T01:25:24;28.88;;;14.25;;
65533;SDS011;53640;55.838;37.184;2023-02-03T01:27:51;25.65;;;13.27;;
65533;SDS011;53640;55.838;37.184;2023-02-03T01:30:17;27.95;;;13.73;;
65533;SDS011;53640;55.838;37.184;2023-02-03T01:32:45;30.00;;;15.82;;
65533;SDS011;53640;55.838;37.184;2023-02-03T01:35:13;31.40;;;15.13;;
65533;SDS011;53640;55.838;37.184;2023-02-03T01:37:41;29.73;;;15.82;;
65533;SDS011;53640;55.838;37.184;2023-02-03T01:40:09;32.05;;;15.82;;
65533;SDS011;53640;55.838;37.184;2023-02-03T01:42:36;32.10;;;16.30;;
65533;SDS011;53640;55.838;37.184;2023-02-03T01:45:04;35.17;;;18.05;;
65533;SDS011;53640;55.838;37.184;2023-02-03T01:47:47;28.88;;;15.48;;
65533;SDS011;53640;55.838;37.184;2023-02-03T01:50:26;29.35;;;14.35;;
65533;SDS011;53640;55.838;37.184;2023-02-03T01:52:59;34.97;;;16.90;;
65533;SDS011;53640;55.838;37.184;2023-02-03T01:55:47;31.35;;;15.63;;
65533;SDS011;53640;55.838;37.184;2023-02-03T02:01:06;29.23;;;14.65;;
65533;SDS011;53640;55.838;37.184;2023-02-03T02:03:46;38.25;;;16.55;;
65533;SDS011;53640;55.838;37.184;2023-02-03T02:06:19;30.52;;;14.93;;
65533;SDS011;53640;55.838;37.184;2023-02-03T02:08:47;29.40;;;15.30;;
65533;SDS011;53640;55.838;37.184;2023-02-03T02:11:17;34.65;;;15.82;;
65533;SDS011;53640;55.838;37.184;2023-02-03T02:13:46;30.33;;;14.68;;
65533;SDS011;53640;55.838;37.184;2023-02-03T02:16:18;34.17;;;16.23;;
65533;SDS011;53640;55.838;37.184;2023-02-03T02:28:08;27.60;;;14.35;;
65533;SDS011;53640;55.838;37.184;2023-02-03T02:33:45;39.83;;;17.10;;
65533;SDS011;53640;55.838;37.184;2023-02-03T02:36:39;31.85;;;15.60;;
65533;SDS011;53640;55.838;37.184;2023-02-03T02:41:54;34.00;;;14.80;;
65533;SDS011;53640;55.838;37.184;2023-02-03T02:44:29;31.90;;;14.77;;
65533;SDS011;53640;55.838;37.184;2023-02-03T02:47:17;31.25;;;15.07;;
65533;SDS011;53640;55.838;37.184;2023-02-03T02:49:49;24.60;;;13.02;;
65533;SDS011;53640;55.838;37.184;2023-02-03T02:52:34;35.92;;;16.10;;
65533;SDS011;53640;55.838;37.184;2023-02-03T02:55:09;29.58;;;14.57;;
65533;SDS011;53640;55.838;37.184;2023-02-03T02:57:42;30.50;;;14.68;;
65533;SDS011;53640;55.838;37.184;2023-02-03T03:00:16;34.88;;;15.80;;
65533;SDS011;53640;55.838;37.184;2023-02-03T03:02:43;36.50;;;15.27;;
65533;SDS011;53640;55.838;37.184;2023-02-03T03:05:09;29.98;;;15.10;;
65533;SDS011;53640;55.838;37.184;2023-02-03T03:07:56;29.88;;;13.68;;
65533;SDS011;53640;55.838;37.184;2023-02-03T03:10:30;31.70;;;13.52;;
65533;SDS011;53640;55.838;37.184;2023-02-03T03:13:02;32.13;;;15.10;;
65533;SDS011;53640;55.838;37.184;2023-02-03T03:15:33;27.58;;;14.82;;
65533;SDS011;53640;55.838;37.184;2023-02-03T03:20:33;36.38;;;17.23;;
65533;SDS011;53640;55.838;37.184;2023-02-03T03:23:06;33.38;;;14.95;;
65533;SDS011;53640;55.838;37.184;2023-02-03T03:25:45;31.27;;;15.32;;
65533;SDS011;53640;55.838;37.184;2023-02-03T03:28:56;27.63;;;14.43;;
65533;SDS011;53640;55.838;37.184;2023-02-03T03:31:28;26.55;;;12.68;;
65533;SDS011;53640;55.838;37.184;2023-02-03T03:33:55;24.90;;;12.63;;
65533;SDS011;53640;55.838;37.184;2023-02-03T03:36:26;31.42;;;14.30;;
65533;SDS011;53640;55.838;37.184;2023-02-03T03:39:08;30.38;;;15.57;;
65533;SDS011;53640;55.838;37.184;2023-02-03T03:44:09;33.17;;;16.42;;
65533;SDS011;53640;55.838;37.184;2023-02-03T03:49:10;31.90;;;14.20;;
65533;SDS011;53640;55.838;37.184;2023-02-03T03:54:37;32.22;;;15.00;;
65533;SDS011;53640;55.838;37.184;2023-02-03T03:57:11;30.15;;;14.52;;
65533;SDS011;53640;55.838;37.184;2023-02-03T03:59:51;33.30;;;15.40;;
65533;SDS011;53640;55.838;37.184;2023-02-03T04:02:18;30.17;;;14.35;;
65533;SDS011;53640;55.838;37.184;2023-02-03T04:04:48;26.35;;;12.95;;
65533;SDS011;53640;55.838;37.184;2023-02-03T04:07:15;26.33;;;14.23;;
65533;SDS011;53640;55.838;37.184;2023-02-03T04:09:42;30.27;;;14.95;;
65533;SDS011;53640;55.838;37.184;2023-02-03T04:12:12;28.58;;;13.70;;
65533;SDS011;53640;55.838;37.184;2023-02-03T04:14:47;34.70;;;15.40;;
65533;SDS011;53640;55.838;37.184;2023-02-03T04:17:15;24.40;;;12.93;;
65533;SDS011;53640;55.838;37.184;2023-02-03T04:19:41;28.17;;;13.57;;
65533;SDS011;53640;55.838;37.184;2023-02-03T04:22:10;26.70;;;13.52;;
65533;SDS011;53640;55.838;37.184;2023-02-03T04:24:37;29.98;;;14.88;;
65533;SDS011;53640;55.838;37.184;2023-02-03T04:27:04;23.80;;;11.60;;
65533;SDS011;53640;55.838;37.184;2023-02-03T04:29:30;31.77;;;15.70;;
65533;SDS011;53640;55.838;37.184;2023-02-03T04:31:59;26.40;;;13.27;;
65533;SDS011;53640;55.838;37.184;2023-02-03T04:34:28;33.85;;;14.73;;
65533;SDS011;53640;55.838;37.184;2023-02-03T04:36:58;26.88;;;13.13;;
65533;SDS011;53640;55.838;37.184;2023-02-03T04:39:26;30.20;;;13.55;;
65533;SDS011;53640;55.838;37.184;2023-02-03T04:41:54;27.73;;;13.75;;
65533;SDS011;53640;55.838;37.184;2023-02-03T04:44:20;30.00;;;12.88;;
65533;SDS011;53640;55.838;37.184;2023-02-03T04:46:47;22.98;;;12.52;;
65533;SDS011;53640;55.838;37.184;2023-02-03T04:49:13;23.98;;;11.40;;
65533;SDS011;53640;55.838;37.184;2023-02-03T04:51:39;27.95;;;12.68;;
65533;SDS011;53640;55.838;37.184;2023-02-03T04:54:14;22.50;;;12.23;;
65533;SDS011;53640;55.838;37.184;2023-02-03T04:56:42;19.65;;;10.20;;
65533;SDS011;53640;55.838;37.184;2023-02-03T04:59:10;22.17;;;11.70;;
65533;SDS011;53640;55.838;37.184;2023-02-03T05:01:38;26.27;;;12.95;;
65533;SDS011;53640;55.838;37.184;2023-02-03T05:04:04;25.02;;;12.23;;
65533;SDS011;53640;55.838;37.184;2023-02-03T05:06:30;29.25;;;14.38;;
65533;SDS011;53640;55.838;37.184;2023-02-03T05:09:00;27.00;;;13.95;;
65533;SDS011;53640;55.838;37.184;2023-02-03T05:11:28;25.42;;;12.90;;
65533;SDS011;53640;55.838;37.184;2023-02-03T05:13:55;29.02;;;13.23;;
65533;SDS011;53640;55.838;37.184;2023-02-03T05:16:21;24.67;;;13.00;;
65533;SDS011;53640;55.838;37.184;2023-02-03T05:18:48;28.15;;;12.35;;
65533;SDS011;53640;55.838;37.184;2023-02-03T05:21:16;27.73;;;13.73;;
65533;SDS011;53640;55.838;37.184;2023-02-03T05:23:44;24.48;;;13.40;;
65533;SDS011;53640;55.838;37.184;2023-02-03T05:26:11;27.45;;;12.30;;
65533;SDS011;53640;55.838;37.184;2023-02-03T05:28:38;24.35;;;12.35;;
65533;SDS011;53640;55.838;37.184;2023-02-03T05:31:05;24.38;;;12.35;;
65533;SDS011;53640;55.838;37.184;2023-02-03T05:33:32;20.25;;;10.07;;
65533;SDS011;53640;55.838;37.184;2023-02-03T05:36:06;22.95;;;11.63;;
65533;SDS011;53640;55.838;37.184;2023-02-03T05:38:33;27.70;;;13.73;;
65533;SDS011;53640;55.838;37.184;2023-02-03T05:41:00;27.25;;;12.45;;
65533;SDS011;53640;55.838;37.184;2023-02-03T05:43:45;23.42;;;10.95;;
65533;SDS011;53640;55.838;37.184;2023-02-03T05:46:12;20.40;;;10.60;;
65533;SDS011;53640;55.838;37.184;2023-02-03T05:48:40;21.33;;;11.13;;
65533;SDS011;53640;55.838;37.184;2023-02-03T05:51:07;23.13;;;11.93;;
65533;SDS011;53640;55.838;37.184;2023-02-03T05:53:34;22.83;;;10.05;;
65533;SDS011;53640;55.838;37.184;2023-02-03T05:56:01;18.10;;;9.60;;
65533;SDS011;53640;55.838;37.184;2023-02-03T05:58:29;22.38;;;10.77;;
65533;SDS011;53640;55.838;37.184;2023-02-03T06:00:55;17.98;;;9.38;;
65533;SDS011;53640;55.838;37.184;2023-02-03T06:03:22;17.75;;;9.13;;
65533;SDS011;53640;55.838;37.184;2023-02-03T06:05:49;19.20;;;9.07;;
65533;SDS011;53640;55.838;37.184;2023-02-03T06:08:17;17.02;;;8.88;;
65533;SDS011;53640;55.838;37.184;2023-02-03T06:10:45;18.83;;;9.23;;
65533;SDS011;53640;55.838;37.184;2023-02-03T06:13:18;19.42;;;9.10;;
65533;SDS011;53640;55.838;37.184;2023-02-03T06:15:44;18.63;;;9.07;;
65533;SDS011;53640;55.838;37.184;2023-02-03T06:18:12;18.45;;;10.18;;
65533;SDS011;53640;55.838;37.184;2023-02-03T06:20:38;18.90;;;9.75;;
65533;SDS011;53640;55.838;37.184;2023-02-03T06:23:05;18.90;;;10.60;;
65533;SDS011;53640;55.838;37.184;2023-02-03T06:25:31;17.20;;;9.07;;
65533;SDS011;53640;55.838;37.184;2023-02-03T06:27:58;17.27;;;9.90;;
65533;SDS011;53640;55.838;37.184;2023-02-03T06:30:25;24.02;;;11.38;;
65533;SDS011;53640;55.838;37.184;2023-02-03T06:32:53;21.17;;;10.30;;
65533;SDS011;53640;55.838;37.184;2023-02-03T06:35:21;21.33;;;10.32;;
65533;SDS011;53640;55.838;37.184;2023-02-03T06:37:55;21.85;;;11.05;;
65533;SDS011;53640;55.838;37.184;2023-02-03T06:40:26;25.20;;;11.88;;
65533;SDS011;53640;55.838;37.184;2023-02-03T06:42:53;23.35;;;11.07;;
65533;SDS011;53640;55.838;37.184;2023-02-03T06:45:20;25.90;;;11.95;;
65533;SDS011;53640;55.838;37.184;2023-02-03T06:47:49;23.15;;;11.60;;
65533;SDS011;53640;55.838;37.184;2023-02-03T06:50:17;20.55;;;10.25;;
65533;SDS011;53640;55.838;37.184;2023-02-03T06:52:49;29.98;;;12.73;;
65533;SDS011;53640;55.838;37.184;2023-02-03T06:55:22;29.48;;;12.35;;
65533;SDS011;53640;55.838;37.184;2023-02-03T06:57:49;25.73;;;12.85;;
65533;SDS011;53640;55.838;37.184;2023-02-03T07:00:17;27.17;;;13.07;;
65533;SDS011;53640;55.838;37.184;2023-02-03T07:03:01;20.38;;;11.18;;
65533;SDS011;53640;55.838;37.184;2023-02-03T07:05:44;22.15;;;10.30;;
65533;SDS011;53640;55.838;37.184;2023-02-03T07:08:20;26.08;;;10.88;;
65533;SDS011;53640;55.838;37.184;2023-02-03T07:10:46;21.92;;;10.85;;
65533;SDS011;53640;55.838;37.184;2023-02-03T07:13:18;21.15;;;10.77;;
65533;SDS011;53640;55.838;37.184;2023-02-03T07:15:46;21.52;;;11.95;;
65533;SDS011;53640;55.838;37.184;2023-02-03T07:18:21;24.83;;;11.95;;
65533;SDS011;53640;55.838;37.184;2023-02-03T07:20:52;22.58;;;11.80;;
65533;SDS011;53640;55.838;37.184;2023-02-03T07:23:18;23.67;;;11.30;;
65533;SDS011;53640;55.838;37.184;2023-02-03T07:25:46;18.23;;;9.82;;
65533;SDS011;53640;55.838;37.184;2023-02-03T07:28:14;17.67;;;9.35;;
65533;SDS011;53640;55.838;37.184;2023-02-03T07:37:23;18.20;;;9.15;;
65533;SDS011;53640;55.838;37.184;2023-02-03T07:39:51;16.73;;;8.57;;
65533;SDS011;53640;55.838;37.184;2023-02-03T07:42:20;19.02;;;9.73;;
65533;SDS011;53640;55.838;37.184;2023-02-03T07:44:52;19.37;;;9.63;;
65533;SDS011;53640;55.838;37.184;2023-02-03T07:47:19;16.30;;;9.00;;
65533;SDS011;53640;55.838;37.184;2023-02-03T07:49:46;20.35;;;9.98;;
65533;SDS011;53640;55.838;37.184;2023-02-03T07:52:12;18.15;;;9.15;;
65533;SDS011;53640;55.838;37.184;2023-02-03T07:54:39;18.90;;;9.35;;
65533;SDS011;53640;55.838;37.184;2023-02-03T07:57:10;19.52;;;9.23;;
65533;SDS011;53640;55.838;37.184;2023-02-03T07:59:38;17.88;;;8.48;;
65533;SDS011;53640;55.838;37.184;2023-02-03T08:02:04;14.75;;;8.73;;
65533;SDS011;53640;55.838;37.184;2023-02-03T08:04:32;13.88;;;8.10;;
65533;SDS011;53640;55.838;37.184;2023-02-03T08:07:11;14.20;;;7.95;;
65533;SDS011;53640;55.838;37.184;2023-02-03T08:09:49;15.52;;;7.88;;
65533;SDS011;53640;55.838;37.184;2023-02-03T08:12:15;14.68;;;7.90;;
65533;SDS011;53640;55.838;37.184;2023-02-03T08:14:42;14.35;;;9.20;;
65533;SDS011;53640;55.838;37.184;2023-02-03T08:17:10;13.80;;;8.48;;
65533;SDS011;53640;55.838;37.184;2023-02-03T08:19:40;19.67;;;8.70;;
65533;SDS011;53640;55.838;37.184;2023-02-03T08:22:10;15.20;;;8.07;;
65533;SDS011;53640;55.838;37.184;2023-02-03T08:24:44;12.88;;;7.70;;
65533;SDS011;53640;55.838;37.184;2023-02-03T08:27:12;13.40;;;8.07;;
65533;SDS011;53640;55.838;37.184;2023-02-03T08:29:43;15.77;;;9.13;;
65533;SDS011;53640;55.838;37.184;2023-02-03T08:32:16;15.88;;;9.20;;
65533;SDS011;53640;55.838;37.184;2023-02-03T08:34:50;13.40;;;7.95;;
65533;SDS011;53640;55.838;37.184;2023-02-03T08:37:32;16.90;;;9.30;;
65533;SDS011;53640;55.838;37.184;2023-02-03T08:40:00;15.88;;;8.93;;
65533;SDS011;53640;55.838;37.184;2023-02-03T08:42:29;14.88;;;8.32;;
65533;SDS011;53640;55.838;37.184;2023-02-03T08:44:57;16.55;;;8.40;;
65533;SDS011;53640;55.838;37.184;2023-02-03T08:47:25;20.25;;;9.25;;
65533;SDS011;53640;55.838;37.184;2023-02-03T08:49:54;14.85;;;8.95;;
65533;SDS011;53640;55.838;37.184;2023-02-03T08:52:20;14.63;;;8.60;;
65533;SDS011;53640;55.838;37.184;2023-02-03T08:54:49;19.13;;;9.57;;
65533;SDS011;53640;55.838;37.184;2023-02-03T08:57:16;16.35;;;9.77;;
65533;SDS011;53640;55.838;37.184;2023-02-03T08:59:45;14.77;;;8.48;;
65533;SDS011;53640;55.838;37.184;2023-02-03T09:02:14;17.30;;;9.18;;
65533;SDS011;53640;55.838;37.184;2023-02-03T09:04:42;11.38;;;6.82;;
65533;SDS011;53640;55.838;37.184;2023-02-03T09:07:09;19.08;;;9.55;;
65533;SDS011;53640;55.838;37.184;2023-02-03T09:09:39;17.58;;;9.18;;
65533;SDS011;53640;55.838;37.184;2023-02-03T09:12:06;17.85;;;9.73;;
65533;SDS011;53640;55.838;37.184;2023-02-03T09:14:33;15.48;;;9.40;;
65533;SDS011;53640;55.838;37.184;2023-02-03T09:17:02;15.75;;;9.27;;
65533;SDS011;53640;55.838;37.184;2023-02-03T09:19:30;15.63;;;8.30;;
65533;SDS011;53640;55.838;37.184;2023-02-03T09:21:57;15.45;;;8.85;;
65533;SDS011;53640;55.838;37.184;2023-02-03T09:24:24;16.60;;;8.90;;
65533;SDS011;53640;55.838;37.184;2023-02-03T09:26:51;15.10;;;9.02;;
65533;SDS011;53640;55.838;37.184;2023-02-03T09:29:18;15.10;;;9.10;;
65533;SDS011;53640;55.838;37.184;2023-02-03T09:31:56;16.13;;;7.82;;
65533;SDS011;53640;55.838;37.184;2023-02-03T09:35:01;16.27;;;8.85;;
65533;SDS011;53640;55.838;37.184;2023-02-03T09:37:33;15.43;;;8.68;;
65533;SDS011;53640;55.838;37.184;2023-02-03T09:47:42;13.77;;;7.30;;
65533;SDS011;53640;55.838;37.184;2023-02-03T09:50:32;16.85;;;9.63;;
65533;SDS011;53640;55.838;37.184;2023-02-03T09:54:04;16.08;;;9.50;;
65533;SDS011;53640;55.838;37.184;2023-02-03T09:56:50;16.85;;;9.45;;
65533;SDS011;53640;55.838;37.184;2023-02-03T09:59:57;14.85;;;8.43;;
65533;SDS011;53640;55.838;37.184;2023-02-03T10:07:18;18.60;;;10.18;;
65533;SDS011;53640;55.838;37.184;2023-02-03T10:12:03;19.88;;;9.35;;
65533;SDS011;53640;55.838;37.184;2023-02-03T10:18:16;14.00;;;8.38;;
65533;SDS011;53640;55.838;37.184;2023-02-03T10:20:59;16.13;;;9.63;;
65533;SDS011;53640;55.838;37.184;2023-02-03T10:23:34;17.02;;;8.23;;
65533;SDS011;53640;55.838;37.184;2023-02-03T10:31:08;23.88;;;12.38;;
65533;SDS011;53640;55.838;37.184;2023-02-03T10:33:45;19.42;;;10.55;;
65533;SDS011;53640;55.838;37.184;2023-02-03T10:39:16;20.83;;;12.10;;
65533;SDS011;53640;55.838;37.184;2023-02-03T10:41:50;16.52;;;10.05;;
65533;SDS011;53640;55.838;37.184;2023-02-03T10:44:19;17.77;;;11.10;;
65533;SDS011;53640;55.838;37.184;2023-02-03T10:46:58;18.77;;;10.48;;
65533;SDS011;53640;55.838;37.184;2023-02-03T10:49:25;23.02;;;11.95;;
65533;SDS011;53640;55.838;37.184;2023-02-03T10:51:54;16.48;;;10.05;;
65533;SDS011;53640;55.838;37.184;2023-02-03T10:54:31;20.92;;;11.82;;
65533;SDS011;53640;55.838;37.184;2023-02-03T10:57:09;21.15;;;11.07;;
65533;SDS011;53640;55.838;37.184;2023-02-03T11:06:03;19.70;;;11.60;;
65533;SDS011;53640;55.838;37.184;2023-02-03T11:08:33;22.48;;;11.82;;
65533;SDS011;53640;55.838;37.184;2023-02-03T11:11:06;22.40;;;12.55;;
65533;SDS011;53640;55.838;37.184;2023-02-03T11:13:35;18.35;;;12.45;;
65533;SDS011;53640;55.838;37.184;2023-02-03T11:19:28;17.70;;;9.80;;
65533;SDS011;53640;55.838;37.184;2023-02-03T11:22:00;15.88;;;9.40;;
65533;SDS011;53640;55.838;37.184;2023-02-03T11:24:38;15.80;;;9.02;;
65533;SDS011;53640;55.838;37.184;2023-02-03T11:27:13;16.30;;;9.23;;
65533;SDS011;53640;55.838;37.184;2023-02-03T11:29:48;15.25;;;9.07;;
65533;SDS011;53640;55.838;37.184;2023-02-03T11:32:32;16.88;;;9.10;;
65533;SDS011;53640;55.838;37.184;2023-02-03T11:35:14;15.95;;;8.23;;
65533;SDS011;53640;55.838;37.184;2023-02-03T11:37:50;15.80;;;8.27;;
65533;SDS011;53640;55.838;37.184;2023-02-03T11:47:56;14.07;;;8.10;;
65533;SDS011;53640;55.838;37.184;2023-02-03T12:05:01;13.63;;;8.07;;
65533;SDS011;53640;55.838;37.184;2023-02-03T12:13:35;15.70;;;7.88;;
65533;SDS011;53640;55.838;37.184;2023-02-03T12:21:55;14.25;;;7.75;;
65533;SDS011;53640;55.838;37.184;2023-02-03T12:24:50;15.88;;;8.60;;
65533;SDS011;53640;55.838;37.184;2023-02-03T12:30:21;19.70;;;9.00;;
65533;SDS011;53640;55.838;37.184;2023-02-03T12:33:12;17.10;;;8.60;;
65533;SDS011;53640;55.838;37.184;2023-02-03T12:35:47;15.73;;;8.32;;
65533;SDS011;53640;55.838;37.184;2023-02-03T12:38:44;15.43;;;8.60;;
65533;SDS011;53640;55.838;37.184;2023-02-03T12:41:20;14.65;;;8.75;;
65533;SDS011;53640;55.838;37.184;2023-02-03T12:43:52;14.90;;;8.77;;
65533;SDS011;53640;55.838;37.184;2023-02-03T12:46:26;11.88;;;7.13;;
65533;SDS011;53640;55.838;37.184;2023-02-03T12:49:10;16.77;;;9.38;;
65533;SDS011;53640;55.838;37.184;2023-02-03T13:00:58;13.82;;;8.20;;
65533;SDS011;53640;55.838;37.184;2023-02-03T13:09:19;15.50;;;8.27;;
65533;SDS011;53640;55.838;37.184;2023-02-03T13:14:43;12.15;;;6.88;;
65533;SDS011;53640;55.838;37.184;2023-02-03T13:17:58;11.52;;;7.47;;
65533;SDS011;53640;55.838;37.184;2023-02-03T13:20:53;13.65;;;7.65;;
65533;SDS011;53640;55.838;37.184;2023-02-03T13:23:20;15.25;;;7.72;;
65533;SDS011;53640;55.838;37.184;2023-02-03T13:28:53;14.98;;;8.40;;
65533;SDS011;53640;55.838;37.184;2023-02-03T13:31:43;12.35;;;8.00;;
65533;SDS011;53640;55.838;37.184;2023-02-03T13:37:36;13.13;;;7.75;;
65533;SDS011;53640;55.838;37.184;2023-02-03T13:42:59;11.70;;;7.55;;
65533;SDS011;53640;55.838;37.184;2023-02-03T13:45:49;12.77;;;7.95;;
65533;SDS011;53640;55.838;37.184;2023-02-03T13:48:27;18.75;;;10.10;;
65533;SDS011;53640;55.838;37.184;2023-02-03T13:51:04;15.82;;;9.27;;
65533;SDS011;53640;55.838;37.184;2023-02-03T13:53:57;12.77;;;8.00;;
65533;SDS011;53640;55.838;37.184;2023-02-03T13:56:38;12.55;;;7.55;;
65533;SDS011;53640;55.838;37.184;2023-02-03T14:05:43;14.82;;;8.07;;
65533;SDS011;53640;55.838;37.184;2023-02-03T14:20:03;13.63;;;7.30;;
65533;SDS011;53640;55.838;37.184;2023-02-03T14:25:56;16.20;;;9.05;;
65533;SDS011;53640;55.838;37.184;2023-02-03T14:28:41;19.73;;;10.48;;
65533;SDS011;53640;55.838;37.184;2023-02-03T14:31:19;18.17;;;9.35;;
65533;SDS011;53640;55.838;37.184;2023-02-03T14:36:44;13.05;;;8.18;;
65533;SDS011;53640;55.838;37.184;2023-02-03T14:48:27;20.75;;;10.60;;
65533;SDS011;53640;55.838;37.184;2023-02-03T14:51:30;14.38;;;10.07;;
65533;SDS011;53640;55.838;37.184;2023-02-03T14:54:33;17.70;;;9.50;;
65533;SDS011;53640;55.838;37.184;2023-02-03T14:57:47;16.70;;;9.13;;
65533;SDS011;53640;55.838;37.184;2023-02-03T15:00:43;12.18;;;7.32;;
65533;SDS011;53640;55.838;37.184;2023-02-03T15:03:39;13.02;;;7.95;;
65533;SDS011;53640;55.838;37.184;2023-02-03T15:06:53;13.13;;;7.50;;
65533;SDS011;53640;55.838;37.184;2023-02-03T15:13:29;15.40;;;7.72;;
65533;SDS011;53640;55.838;37.184;2023-02-03T15:16:11;10.88;;;7.22;;
65533;SDS011;53640;55.838;37.184;2023-02-03T15:18:58;15.30;;;8.48;;
65533;SDS011;53640;55.838;37.184;2023-02-03T15:22:00;12.82;;;7.85;;
65533;SDS011;53640;55.838;37.184;2023-02-03T15:24:33;15.32;;;8.80;;
65533;SDS011;53640;55.838;37.184;2023-02-03T15:30:33;11.25;;;6.90;;
65533;SDS011;53640;55.838;37.184;2023-02-03T15:43:11;13.55;;;8.27;;
65533;SDS011;53640;55.838;37.184;2023-02-03T15:46:50;13.65;;;8.07;;
65533;SDS011;53640;55.838;37.184;2023-02-03T15:49:45;12.13;;;7.72;;
65533;SDS011;53640;55.838;37.184;2023-02-03T15:52:55;16.75;;;8.13;;
65533;SDS011;53640;55.838;37.184;2023-02-03T16:06:01;13.38;;;8.00;;
65533;SDS011;53640;55.838;37.184;2023-02-03T16:12:03;18.00;;;9.90;;
65533;SDS011;53640;55.838;37.184;2023-02-03T16:14:57;14.52;;;8.32;;
65533;SDS011;53640;55.838;37.184;2023-02-03T16:17:57;11.77;;;6.95;;
65533;SDS011;53640;55.838;37.184;2023-02-03T16:20:30;9.23;;;6.10;;
65533;SDS011;53640;55.838;37.184;2023-02-03T16:23:26;7.07;;;4.70;;
65533;SDS011;53640;55.838;37.184;2023-02-03T16:34:47;6.63;;;3.90;;
65533;SDS011;53640;55.838;37.184;2023-02-03T16:45:13;5.47;;;4.10;;
65533;SDS011;53640;55.838;37.184;2023-02-03T16:48:16;6.88;;;3.97;;
65533;SDS011;53640;55.838;37.184;2023-02-03T16:51:37;4.97;;;3.40;;
65533;SDS011;53640;55.838;37.184;2023-02-03T16:54:12;4.32;;;3.80;;
65533;SDS011;53640;55.838;37.184;2023-02-03T16:56:45;6.78;;;4.63;;
65533;SDS011;53640;55.838;37.184;2023-02-03T16:59:17;8.02;;;4.65;;
65533;SDS011;53640;55.838;37.184;2023-02-03T17:01:48;5.97;;;4.60;;
65533;SDS011;53640;55.838;37.184;2023-02-03T17:04:29;6.82;;;4.65;;
65533;SDS011;53640;55.838;37.184;2023-02-03T17:07:13;7.38;;;4.50;;
65533;SDS011;53640;55.838;37.184;2023-02-03T17:09:44;5.80;;;3.70;;
65533;SDS011;53640;55.838;37.184;2023-02-03T17:12:10;6.03;;;4.40;;
65533;SDS011;53640;55.838;37.184;2023-02-03T17:14:37;6.25;;;4.55;;
65533;SDS011;53640;55.838;37.184;2023-02-03T17:17:06;9.10;;;4.65;;
65533;SDS011;53640;55.838;37.184;2023-02-03T17:19:35;10.55;;;4.32;;
65533;SDS011;53640;55.838;37.184;2023-02-03T17:22:06;7.38;;;4.75;;
65533;SDS011;53640;55.838;37.184;2023-02-03T17:24:40;5.97;;;4.35;;
65533;SDS011;53640;55.838;37.184;2023-02-03T17:27:07;5.72;;;4.03;;
65533;SDS011;53640;55.838;37.184;2023-02-03T17:29:48;5.20;;;3.70;;
65533;SDS011;53640;55.838;37.184;2023-02-03T17:32:31;4.27;;;3.50;;
65533;SDS011;53640;55.838;37.184;2023-02-03T17:35:10;4.43;;;3.60;;
65533;SDS011;53640;55.838;37.184;2023-02-03T17:37:37;4.63;;;3.70;;
65533;SDS011;53640;55.838;37.184;2023-02-03T17:40:04;6.68;;;4.63;;
65533;SDS011;53640;55.838;37.184;2023-02-03T17:42:32;5.18;;;3.80;;
65533;SDS011;53640;55.838;37.184;2023-02-03T17:44:59;6.60;;;4.38;;
65533;SDS011;53640;55.838;37.184;2023-02-03T17:47:26;6.63;;;4.78;;
65533;SDS011;53640;55.838;37.184;2023-02-03T17:49:53;3.70;;;3.30;;
65533;SDS011;53640;55.838;37.184;2023-02-03T17:52:19;7.53;;;4.70;;
65533;SDS011;53640;55.838;37.184;2023-02-03T17:54:46;7.32;;;4.35;;
65533;SDS011;53640;55.838;37.184;2023-02-03T17:57:17;6.78;;;4.30;;
65533;SDS011;53640;55.838;37.184;2023-02-03T17:59:45;6.95;;;4.45;;
65533;SDS011;53640;55.838;37.184;2023-02-03T18:02:13;6.18;;;4.05;;
65533;SDS011;53640;55.838;37.184;2023-02-03T18:04:45;4.57;;;3.55;;
65533;SDS011;53640;55.838;37.184;2023-02-03T18:07:15;3.53;;;2.80;;
65533;SDS011;53640;55.838;37.184;2023-02-03T18:09:41;4.20;;;3.08;;
65533;SDS011;53640;55.838;37.184;2023-02-03T18:12:14;3.00;;;2.78;;
65533;SDS011;53640;55.838;37.184;2023-02-03T18:14:44;4.30;;;2.88;;
65533;SDS011;53640;55.838;37.184;2023-02-03T18:17:10;3.65;;;2.72;;
65533;SDS011;53640;55.838;37.184;2023-02-03T18:19:42;8.38;;;4.40;;
65533;SDS011;53640;55.838;37.184;2023-02-03T18:22:09;6.85;;;3.92;;
65533;SDS011;53640;55.838;37.184;2023-02-03T18:24:39;4.70;;;2.90;;
65533;SDS011;53640;55.838;37.184;2023-02-03T18:27:09;5.28;;;3.42;;
65533;SDS011;53640;55.838;37.184;2023-02-03T18:29:50;5.63;;;3.53;;